createdAt,value
2019-05-18T00:00:58.310Z,97144.17
2019-05-18T00:03:27.570Z,97143.93
2019-05-18T00:05:56.852Z,97151.52
2019-05-18T00:08:26.124Z,97156.42
2019-05-18T00:10:55.371Z,97155.79
2019-05-18T00:13:24.780Z,97151.08
2019-05-18T00:15:54.064Z,97154.42
2019-05-18T00:18:23.334Z,97160.43
2019-05-18T00:20:52.687Z,97151.16
2019-05-18T00:23:21.970Z,97153.73
2019-05-18T00:25:51.252Z,97147.59
2019-05-18T00:28:20.628Z,97142.75
2019-05-18T00:30:49.926Z,97147.92
2019-05-18T00:33:19.217Z,97148.66
2019-05-18T00:35:48.497Z,97143.00
2019-05-18T00:38:17.821Z,97143.20
2019-05-18T00:40:48.569Z,97140.78
2019-05-18T00:43:17.846Z,97139.05
2019-05-18T00:45:47.138Z,97139.05
2019-05-18T00:48:16.398Z,97142.11
2019-05-18T00:50:45.666Z,97139.42
2019-05-18T00:53:16.431Z,97143.17
2019-05-18T00:55:45.710Z,97151.37
2019-05-18T00:58:15.010Z,97151.94
2019-05-18T01:00:44.479Z,97155.25
2019-05-18T01:03:13.767Z,97153.66
2019-05-18T01:05:43.122Z,97156.19
2019-05-18T01:08:12.402Z,97149.42
2019-05-18T01:10:41.700Z,97146.58
2019-05-18T01:13:10.990Z,97144.84
2019-05-18T01:15:42.084Z,97148.78
2019-05-18T01:18:11.386Z,97141.23
2019-05-18T01:20:40.977Z,97134.67
2019-05-18T01:23:10.258Z,97137.13
2019-05-18T01:25:39.578Z,97132.67
2019-05-18T01:28:08.897Z,97127.05
2019-05-18T01:30:38.238Z,97126.27
2019-05-18T01:33:07.504Z,97124.12
2019-05-18T01:35:36.809Z,97135.45
2019-05-18T01:38:06.072Z,97124.78
2019-05-18T01:40:36.790Z,97128.47
2019-05-18T01:43:07.179Z,97124.02
2019-05-18T01:45:38.279Z,97116.59
2019-05-18T01:48:14.185Z,97128.73
2019-05-18T01:50:38.574Z,97122.66
2019-05-18T01:53:07.858Z,97121.23
2019-05-18T01:55:38.047Z,97119.55
2019-05-18T01:58:07.326Z,97117.04
2019-05-18T02:00:36.613Z,97116.56
2019-05-18T02:03:05.894Z,97120.27
2019-05-18T02:05:35.199Z,97122.70
2019-05-18T02:08:04.446Z,97117.88
2019-05-18T02:10:35.534Z,97116.67
2019-05-18T02:13:04.818Z,97115.65
2019-05-18T02:15:34.083Z,97122.47
2019-05-18T02:18:03.359Z,97122.25
2019-05-18T02:20:32.662Z,97111.63
2019-05-18T02:23:01.935Z,97115.75
2019-05-18T02:25:31.223Z,97116.66
2019-05-18T02:28:00.477Z,97112.30
2019-05-18T02:30:29.783Z,97108.84
2019-05-18T02:32:59.079Z,97112.81
2019-05-18T02:35:28.362Z,97112.94
2019-05-18T02:38:14.478Z,97111.52
2019-05-18T02:40:44.020Z,97109.95
2019-05-18T02:43:13.279Z,97105.91
2019-05-18T02:45:42.629Z,97102.24
2019-05-18T02:48:11.979Z,97104.23
2019-05-18T02:50:41.243Z,97092.07
2019-05-18T02:53:10.620Z,97098.77
2019-05-18T02:55:39.893Z,97084.91
2019-05-18T02:58:09.151Z,97093.32
2019-05-18T03:00:38.459Z,97092.38
2019-05-18T03:03:07.755Z,97093.90
2019-05-18T03:05:37.019Z,97091.75
2019-05-18T03:08:06.296Z,97086.20
2019-05-18T03:10:35.762Z,97090.13
2019-05-18T03:13:05.674Z,97092.72
2019-05-18T03:15:36.126Z,97088.73
2019-05-18T03:18:05.477Z,97095.64
2019-05-18T03:20:34.739Z,97094.84
2019-05-18T03:23:04.041Z,97096.42
2019-05-18T03:25:33.346Z,97100.14
2019-05-18T03:28:02.579Z,97097.20
2019-05-18T03:30:31.863Z,97092.61
2019-05-18T03:33:01.256Z,97091.24
2019-05-18T03:35:30.564Z,97091.97
2019-05-18T03:37:59.824Z,97092.61
2019-05-18T03:40:29.134Z,97091.45
2019-05-18T03:42:58.398Z,97089.23
2019-05-18T03:45:27.695Z,97097.95
2019-05-18T03:47:56.976Z,97094.08
2019-05-18T03:50:26.235Z,97094.89
2019-05-18T03:52:55.508Z,97104.86
2019-05-18T03:55:24.799Z,97100.67
2019-05-18T03:57:54.060Z,97094.38
2019-05-18T04:00:23.335Z,97099.83
2019-05-18T04:02:54.035Z,97094.06
2019-05-18T04:05:23.346Z,97100.36
2019-05-18T04:07:52.641Z,97092.38
2019-05-18T04:10:26.376Z,97099.09
2019-05-18T04:12:55.754Z,97095.81
2019-05-18T04:15:25.043Z,97106.53
2019-05-18T04:17:54.350Z,97109.38
2019-05-18T04:20:23.603Z,97107.50
2019-05-18T04:22:52.867Z,97107.08
2019-05-18T04:25:22.214Z,97108.58
2019-05-18T04:27:51.543Z,97104.76
2019-05-18T04:30:20.839Z,97107.71
2019-05-18T04:32:50.118Z,97103.92
2019-05-18T04:35:20.832Z,97106.95
2019-05-18T04:37:50.095Z,97111.09
2019-05-18T04:40:20.611Z,97108.00
2019-05-18T04:42:49.902Z,97119.02
2019-05-18T04:45:20.410Z,97117.11
2019-05-18T04:47:49.718Z,97122.06
2019-05-18T04:50:19.300Z,97121.94
2019-05-18T04:52:48.577Z,97119.84
2019-05-18T04:55:17.917Z,97127.09
2019-05-18T04:57:47.272Z,97129.81
2019-05-18T05:00:17.262Z,97131.56
2019-05-18T05:02:49.351Z,97126.86
2019-05-18T05:05:18.625Z,97130.59
2019-05-18T05:07:49.223Z,97126.87
2019-05-18T05:10:18.789Z,97129.99
2019-05-18T05:12:48.100Z,97134.73
2019-05-18T05:15:17.391Z,97135.50
2019-05-18T05:17:46.759Z,97137.87
2019-05-18T05:20:19.665Z,97136.61
2019-05-18T05:22:48.437Z,97130.16
2019-05-18T05:25:17.693Z,97127.44
2019-05-18T05:27:46.955Z,97128.27
2019-05-18T05:30:16.999Z,97132.94
2019-05-18T05:32:46.324Z,97137.77
2019-05-18T05:35:15.620Z,97133.35
2019-05-18T05:37:44.909Z,97136.61
2019-05-18T05:40:14.479Z,97137.53
2019-05-18T05:42:43.765Z,97131.73
2019-05-18T05:45:13.353Z,97138.23
2019-05-18T05:47:42.666Z,97127.52
2019-05-18T05:50:11.934Z,97131.53
2019-05-18T05:52:41.415Z,97128.27
2019-05-18T05:55:12.260Z,97134.66
2019-05-18T05:57:41.543Z,97141.61
2019-05-18T06:00:11.414Z,97136.03
2019-05-18T06:02:40.716Z,97144.36
2019-05-18T06:05:10.383Z,97150.01
2019-05-18T06:07:39.671Z,97147.54
2019-05-18T06:10:09.281Z,97148.20
2019-05-18T06:12:38.554Z,97150.80
2019-05-18T06:15:08.371Z,97143.97
2019-05-18T06:17:37.644Z,97150.26
2019-05-18T06:20:08.070Z,97160.58
2019-05-18T06:22:37.348Z,97150.11
2019-05-18T06:25:07.024Z,97157.33
2019-05-18T06:27:36.354Z,97159.74
2019-05-18T06:30:06.297Z,97157.73
2019-05-18T06:32:36.093Z,97157.41
2019-05-18T06:35:05.585Z,97159.60
2019-05-18T06:37:34.896Z,97152.02
2019-05-18T06:40:04.436Z,97152.25
2019-05-18T06:42:33.736Z,97153.98
2019-05-18T06:45:03.758Z,97147.09
2019-05-18T06:47:33.080Z,97148.19
2019-05-18T06:50:02.383Z,97147.02
2019-05-18T06:52:31.705Z,97154.81
2019-05-18T06:55:02.402Z,97153.93
2019-05-18T06:57:33.417Z,97147.78
2019-05-18T07:00:04.386Z,97148.61
2019-05-18T07:02:33.712Z,97141.67
2019-05-18T07:05:03.010Z,97148.45
2019-05-18T07:07:32.375Z,97151.04
2019-05-18T07:10:01.829Z,97153.73
2019-05-18T07:12:31.332Z,97154.53
2019-05-18T07:15:00.750Z,97153.37
2019-05-18T07:17:30.418Z,97149.30
2019-05-18T07:19:59.705Z,97141.47
2019-05-18T07:22:30.835Z,97149.97
2019-05-18T07:25:00.176Z,97151.28
2019-05-18T07:27:29.445Z,97141.05
2019-05-18T07:29:59.980Z,97145.33
2019-05-18T07:32:29.274Z,97147.98
2019-05-18T07:34:58.544Z,97141.23
2019-05-18T07:37:27.907Z,97142.98
2019-05-18T07:39:57.152Z,97146.20
2019-05-18T07:42:26.425Z,97141.36
2019-05-18T07:44:55.717Z,97150.73
2019-05-18T07:47:24.983Z,97139.38
2019-05-18T07:49:55.206Z,97141.72
2019-05-18T07:52:24.492Z,97138.16
2019-05-18T07:54:53.770Z,97139.98
2019-05-18T07:57:23.035Z,97143.66
2019-05-18T07:59:52.336Z,97133.38
2019-05-18T08:02:21.597Z,97135.16
2019-05-18T08:04:50.913Z,97127.40
2019-05-18T08:07:20.197Z,97134.44
2019-05-18T08:09:49.527Z,97129.63
2019-05-18T08:12:18.791Z,97134.41
2019-05-18T08:14:48.058Z,97125.66
2019-05-18T08:17:17.659Z,97130.34
2019-05-18T08:19:47.771Z,97126.37
2019-05-18T08:22:17.604Z,97124.06
2019-05-18T08:24:48.312Z,97130.48
2019-05-18T08:27:18.241Z,97130.84
2019-05-18T08:29:51.417Z,97126.75
2019-05-18T08:32:21.189Z,97128.64
2019-05-18T08:34:50.446Z,97121.41
2019-05-18T08:37:20.706Z,97112.29
2019-05-18T08:39:52.182Z,97115.02
2019-05-18T08:42:23.889Z,97103.94
2019-05-18T08:44:55.734Z,97101.21
2019-05-18T08:47:26.730Z,97102.84
2019-05-18T08:49:59.458Z,97094.14
2019-05-18T08:52:31.005Z,97104.26
2019-05-18T08:55:02.856Z,97101.45
2019-05-18T08:57:34.777Z,97101.41
2019-05-18T09:00:06.367Z,97102.08
2019-05-18T09:02:38.967Z,97091.17
2019-05-18T09:05:10.469Z,97095.75
2019-05-18T09:07:42.322Z,97099.71
2019-05-18T09:10:14.207Z,97097.11
2019-05-18T09:12:45.770Z,97098.51
2019-05-18T09:15:18.148Z,97102.02
2019-05-18T09:17:49.818Z,97092.92
2019-05-18T09:20:20.038Z,97106.27
2019-05-18T09:22:51.387Z,97097.37
2019-05-18T09:25:21.278Z,97097.96
2019-05-18T09:27:50.585Z,97091.31
2019-05-18T09:30:20.342Z,97090.23
2019-05-18T09:32:49.663Z,97090.53
2019-05-18T09:35:19.180Z,97092.18
2019-05-18T09:37:48.474Z,97093.95
2019-05-18T09:40:17.984Z,97089.98
2019-05-18T09:42:47.271Z,97090.02
2019-05-18T09:45:18.247Z,97083.17
2019-05-18T09:47:47.564Z,97089.65
2019-05-18T09:50:18.070Z,97086.98
2019-05-18T09:52:47.408Z,97090.13
2019-05-18T09:55:17.688Z,97082.42
2019-05-18T09:57:46.965Z,97076.45
2019-05-18T10:00:16.726Z,97080.19
2019-05-18T10:02:47.101Z,97084.21
2019-05-18T10:05:17.971Z,97083.83
2019-05-18T10:07:47.286Z,97088.55
2019-05-18T10:10:17.010Z,97086.52
2019-05-18T10:12:46.278Z,97081.11
2019-05-18T10:15:15.906Z,97074.68
2019-05-18T10:17:45.212Z,97074.45
2019-05-18T10:20:15.029Z,97075.45
2019-05-18T10:22:59.116Z,97079.04
2019-05-18T10:25:16.520Z,97068.05
2019-05-18T10:27:45.814Z,97070.79
2019-05-18T10:30:15.585Z,97076.11
2019-05-18T10:32:44.986Z,97066.34
2019-05-18T10:35:14.541Z,97069.28
2019-05-18T10:37:43.855Z,97064.20
2019-05-18T10:40:13.971Z,97054.40
2019-05-18T10:42:43.369Z,97054.72
2019-05-18T10:45:14.374Z,97057.03
2019-05-18T10:47:43.736Z,97060.91
2019-05-18T10:50:13.597Z,97058.33
2019-05-18T10:52:42.931Z,97047.78
2019-05-18T10:55:12.770Z,97048.95
2019-05-18T10:57:42.110Z,97043.77
2019-05-18T11:00:12.605Z,97042.36
2019-05-18T11:02:43.062Z,97043.46
2019-05-18T11:05:12.594Z,97046.83
2019-05-18T11:07:41.879Z,97046.08
2019-05-18T11:10:11.845Z,97032.73
2019-05-18T11:12:41.469Z,97034.50
2019-05-18T11:15:12.532Z,97028.68
2019-05-18T11:17:41.830Z,97036.20
2019-05-18T11:20:14.410Z,97033.61
2019-05-18T11:22:43.742Z,97024.62
2019-05-18T11:25:14.677Z,97027.27
2019-05-18T11:27:43.985Z,97011.73
2019-05-18T11:30:15.153Z,97020.68
2019-05-18T11:32:44.424Z,97019.98
2019-05-18T11:35:13.952Z,97020.36
2019-05-18T11:37:43.255Z,97014.09
2019-05-18T11:40:13.140Z,97007.95
2019-05-18T11:42:42.441Z,97013.75
2019-05-18T11:45:13.149Z,97021.08
2019-05-18T11:47:42.545Z,97014.47
2019-05-18T11:50:14.077Z,97013.27
2019-05-18T11:52:43.415Z,97002.01
2019-05-18T11:55:12.896Z,96998.53
2019-05-18T11:57:42.198Z,96998.70
2019-05-18T12:00:14.312Z,96999.11
2019-05-18T12:02:43.610Z,97002.53
2019-05-18T12:05:13.497Z,96999.28
2019-05-18T12:07:42.919Z,96993.74
2019-05-18T12:10:12.831Z,97000.80
2019-05-18T12:12:42.196Z,96990.79
2019-05-18T12:15:13.530Z,96988.44
2019-05-18T12:17:42.765Z,96992.98
2019-05-18T12:20:13.800Z,96985.23
2019-05-18T12:22:43.250Z,96988.06
2019-05-18T12:25:13.205Z,96991.53
2019-05-18T12:27:42.499Z,96989.02
2019-05-18T12:30:12.677Z,96985.07
2019-05-18T12:32:42.168Z,96981.70
2019-05-18T12:35:11.869Z,96979.52
2019-05-18T12:37:41.176Z,96972.20
2019-05-18T12:40:11.437Z,96980.09
2019-05-18T12:42:40.749Z,96969.09
2019-05-18T12:45:10.666Z,96975.56
2019-05-18T12:47:39.975Z,96990.35
2019-05-18T12:50:09.972Z,96980.73
2019-05-18T12:52:39.862Z,96975.04
2019-05-18T12:55:09.705Z,96975.37
2019-05-18T12:57:38.931Z,96976.73
2019-05-18T13:00:09.072Z,96977.75
2019-05-18T13:02:38.425Z,96973.37
2019-05-18T13:05:08.024Z,96968.13
2019-05-18T13:07:38.673Z,96968.08
2019-05-18T13:10:10.549Z,96959.09
2019-05-18T13:12:39.845Z,96964.33
2019-05-18T13:15:10.144Z,96964.28
2019-05-18T13:17:39.604Z,96946.62
2019-05-18T13:20:10.208Z,96949.08
2019-05-18T13:22:39.504Z,96943.48
2019-05-18T13:25:09.491Z,96951.89
2019-05-18T13:27:40.140Z,96949.34
2019-05-18T13:30:10.639Z,96942.73
2019-05-18T13:32:40.125Z,96938.95
2019-05-18T13:35:09.998Z,96944.24
2019-05-18T13:37:39.345Z,96949.02
2019-05-18T13:40:09.880Z,96947.69
2019-05-18T13:42:39.129Z,96938.56
2019-05-18T13:45:09.451Z,96937.98
2019-05-18T13:47:39.442Z,96935.63
2019-05-18T13:50:09.638Z,96923.25
2019-05-18T13:52:39.575Z,96925.12
2019-05-18T13:55:09.413Z,96925.46
2019-05-18T13:57:38.693Z,96930.61
2019-05-18T14:00:10.101Z,96923.16
2019-05-18T14:02:39.395Z,96930.52
2019-05-18T14:05:09.202Z,96918.73
2019-05-18T14:07:38.498Z,96920.16
2019-05-18T14:10:12.447Z,96916.95
2019-05-18T14:12:41.229Z,96924.89
2019-05-18T14:15:12.208Z,96916.63
2019-05-18T14:17:41.555Z,96918.87
2019-05-18T14:20:11.053Z,96917.14
2019-05-18T14:22:40.424Z,96910.67
2019-05-18T14:25:19.300Z,96920.02
2019-05-18T14:27:41.382Z,96915.91
2019-05-18T14:30:11.182Z,96913.12
2019-05-18T14:32:40.520Z,96898.25
2019-05-18T14:35:09.994Z,96903.94
2019-05-18T14:37:39.422Z,96911.06
2019-05-18T14:40:09.764Z,96905.89
2019-05-18T14:42:39.050Z,96905.44
2019-05-18T14:45:09.075Z,96911.97
2019-05-18T14:47:38.421Z,96907.27
2019-05-18T14:50:09.502Z,96909.39
2019-05-18T14:52:38.803Z,96908.50
2019-05-18T14:55:08.285Z,96919.31
2019-05-18T14:57:37.629Z,96921.27
2019-05-18T15:00:07.952Z,96923.31
2019-05-18T15:02:37.230Z,96917.59
2019-05-18T15:05:06.997Z,96920.53
2019-05-18T15:07:36.490Z,96910.23
2019-05-18T15:10:06.519Z,96908.44
2019-05-18T15:12:36.360Z,96905.71
2019-05-18T15:15:08.799Z,96907.05
2019-05-18T15:17:39.009Z,96911.94
2019-05-18T15:20:09.243Z,96908.70
2019-05-18T15:22:39.088Z,96899.87
2019-05-18T15:25:09.814Z,96905.59
2019-05-18T15:27:39.875Z,96893.43
2019-05-18T15:30:09.968Z,96900.61
2019-05-18T15:32:39.219Z,96899.38
2019-05-18T15:35:10.108Z,96897.50
2019-05-18T15:37:39.518Z,96894.66
2019-05-18T15:40:09.072Z,96897.44
2019-05-18T15:42:38.385Z,96896.20
2019-05-18T15:45:08.147Z,96897.50
2019-05-18T15:47:37.474Z,96896.64
2019-05-18T15:50:07.253Z,96894.62
2019-05-18T15:52:36.655Z,96896.31
2019-05-18T15:55:06.593Z,96894.66
2019-05-18T15:57:35.931Z,96893.34
2019-05-18T16:00:07.949Z,96891.88
2019-05-18T16:02:37.340Z,96894.39
2019-05-18T16:05:07.784Z,96897.73
2019-05-18T16:07:37.113Z,96894.83
2019-05-18T16:10:07.349Z,96895.22
2019-05-18T16:12:36.673Z,96893.67
2019-05-18T16:15:07.081Z,96883.79
2019-05-18T16:17:39.417Z,96887.55
2019-05-18T16:20:08.110Z,96883.29
2019-05-18T16:22:38.605Z,96881.91
2019-05-18T16:25:08.707Z,96876.91
2019-05-18T16:27:39.468Z,96879.55
2019-05-18T16:30:09.775Z,96881.91
2019-05-18T16:32:39.102Z,96881.66
2019-05-18T16:35:09.676Z,96886.72
2019-05-18T16:37:38.927Z,96881.55
2019-05-18T16:40:09.513Z,96884.16
2019-05-18T16:42:38.916Z,96890.49
2019-05-18T16:45:09.045Z,96888.67
2019-05-18T16:47:38.427Z,96889.72
2019-05-18T16:50:08.378Z,96891.87
2019-05-18T16:52:37.688Z,96906.06
2019-05-18T16:55:07.501Z,96896.94
2019-05-18T16:57:36.887Z,96904.51
2019-05-18T17:00:06.645Z,96903.22
2019-05-18T17:02:35.971Z,96910.05
2019-05-18T17:05:06.937Z,96905.79
2019-05-18T17:07:36.991Z,96905.20
2019-05-18T17:10:08.060Z,96905.70
2019-05-18T17:12:37.372Z,96908.09
2019-05-18T17:15:07.758Z,96909.77
2019-05-18T17:17:38.582Z,96910.14
2019-05-18T17:20:09.123Z,96909.77
2019-05-18T17:22:38.427Z,96909.28
2019-05-18T17:25:08.977Z,96909.80
2019-05-18T17:27:38.830Z,96917.03
2019-05-18T17:30:08.509Z,96914.50
2019-05-18T17:32:38.946Z,96914.87
2019-05-18T17:35:08.780Z,96916.09
2019-05-18T17:37:38.121Z,96915.93
2019-05-18T17:40:08.261Z,96918.88
2019-05-18T17:42:37.529Z,96926.72
2019-05-18T17:45:08.312Z,96925.61
2019-05-18T17:47:37.646Z,96929.22
2019-05-18T17:50:10.592Z,96932.26
2019-05-18T17:52:41.101Z,96931.25
2019-05-18T17:55:10.935Z,96930.80
2019-05-18T17:57:40.982Z,96933.59
2019-05-18T18:00:13.009Z,96932.95
2019-05-18T18:02:42.299Z,96925.17
2019-05-18T18:05:14.601Z,96927.88
2019-05-18T18:07:43.946Z,96929.35
2019-05-18T18:10:17.218Z,96929.74
2019-05-18T18:12:47.010Z,96933.20
2019-05-18T18:15:17.159Z,96927.16
2019-05-18T18:17:46.911Z,96940.23
2019-05-18T18:20:16.652Z,96937.59
2019-05-18T18:22:45.943Z,96943.31
2019-05-18T18:25:15.448Z,96938.65
2019-05-18T18:27:44.876Z,96941.94
2019-05-18T18:30:14.794Z,96939.70
2019-05-18T18:32:44.111Z,96946.36
2019-05-18T18:35:13.652Z,96948.52
2019-05-18T18:37:42.915Z,96954.78
2019-05-18T18:40:12.620Z,96957.55
2019-05-18T18:42:44.676Z,96956.16
2019-05-18T18:45:14.568Z,96956.33
2019-05-18T18:47:43.889Z,96956.95
2019-05-18T18:50:13.912Z,96954.63
2019-05-18T18:52:43.516Z,96957.38
2019-05-18T18:55:13.258Z,96965.70
2019-05-18T18:57:42.823Z,96953.58
2019-05-18T19:00:13.067Z,96958.51
2019-05-18T19:02:42.450Z,96954.63
2019-05-18T19:05:12.287Z,96956.69
2019-05-18T19:07:41.791Z,96960.84
2019-05-18T19:10:11.935Z,96966.63
2019-05-18T19:12:41.326Z,96966.35
2019-05-18T19:15:11.662Z,96967.70
2019-05-18T19:17:40.992Z,96966.64
2019-05-18T19:20:10.723Z,96972.14
2019-05-18T19:22:40.069Z,96972.14
2019-05-18T19:25:10.407Z,96975.42
2019-05-18T19:27:39.719Z,96975.99
2019-05-18T19:30:10.285Z,96971.91
2019-05-18T19:32:40.108Z,96977.25
2019-05-18T19:35:11.139Z,96978.63
2019-05-18T19:37:40.605Z,96980.13
2019-05-18T19:40:10.427Z,96982.42
2019-05-18T19:42:39.872Z,96982.42
2019-05-18T19:45:10.532Z,96973.69
2019-05-18T19:47:40.652Z,96982.40
2019-05-18T19:50:10.212Z,96989.48
2019-05-18T19:52:39.584Z,96986.97
2019-05-18T19:55:09.204Z,96986.66
2019-05-18T19:57:38.503Z,96990.20
2019-05-18T20:00:08.151Z,96990.20
2019-05-18T20:02:37.553Z,96985.84
2019-05-18T20:05:08.841Z,96992.98
2019-05-18T20:07:38.493Z,96992.98
2019-05-18T20:10:09.230Z,96991.07
2019-05-18T20:12:38.604Z,96991.72
2019-05-18T20:15:09.633Z,96997.71
2019-05-18T20:17:39.206Z,96989.14
2019-05-18T20:20:08.828Z,96987.82
2019-05-18T20:22:38.096Z,96990.77
2019-05-18T20:25:07.946Z,96989.86
2019-05-18T20:27:38.391Z,96993.52
2019-05-18T20:30:08.714Z,96991.19
2019-05-18T20:32:38.066Z,96996.38
2019-05-18T20:35:07.661Z,97003.27
2019-05-18T20:37:36.979Z,96997.48
2019-05-18T20:40:07.143Z,96998.86
2019-05-18T20:42:37.724Z,97001.85
2019-05-18T20:45:09.495Z,96998.72
2019-05-18T20:47:38.840Z,96995.27
2019-05-18T20:50:08.636Z,97004.05
2019-05-18T20:52:38.077Z,97004.00
2019-05-18T20:55:08.348Z,97006.11
2019-05-18T20:57:37.704Z,97002.06
2019-05-18T21:00:08.013Z,97010.14
2019-05-18T21:02:38.893Z,97007.50
2019-05-18T21:05:08.550Z,97007.69
2019-05-18T21:07:37.852Z,97009.22
2019-05-18T21:10:08.282Z,97014.86
2019-05-18T21:12:37.697Z,97014.41
2019-05-18T21:15:07.628Z,97016.34
2019-05-18T21:17:36.967Z,97015.84
2019-05-18T21:20:06.496Z,97027.34
2019-05-18T21:22:35.878Z,97021.06
2019-05-18T21:25:05.668Z,97024.59
2019-05-18T21:27:34.959Z,97022.22
2019-05-18T21:30:04.648Z,97022.25
2019-05-18T21:32:34.030Z,97017.27
2019-05-18T21:35:03.369Z,97017.06
2019-05-18T21:37:32.624Z,97017.70
2019-05-18T21:40:01.929Z,97020.16
2019-05-18T21:42:31.241Z,97017.24
2019-05-18T21:45:00.556Z,97013.27
2019-05-18T21:47:29.862Z,97024.76
2019-05-18T21:49:59.164Z,97019.48
2019-05-18T21:52:28.459Z,97027.75
2019-05-18T21:54:57.765Z,97020.67
2019-05-18T21:57:27.096Z,97023.97
2019-05-18T21:59:56.457Z,97020.63
2019-05-18T22:02:25.723Z,97023.61
2019-05-18T22:04:56.359Z,97015.17
2019-05-18T22:07:25.654Z,97013.95
2019-05-18T22:09:55.050Z,97013.02
2019-05-18T22:12:24.339Z,97008.53
2019-05-18T22:14:55.235Z,97007.80
2019-05-18T22:17:24.497Z,97012.30
2019-05-18T22:19:53.830Z,97011.53
2019-05-18T22:22:23.097Z,97006.17
2019-05-18T22:24:54.069Z,97009.68
2019-05-18T22:27:23.610Z,96995.34
2019-05-18T22:29:52.984Z,96998.87
2019-05-18T22:32:22.318Z,96995.30
2019-05-18T22:34:53.879Z,96998.00
2019-05-18T22:37:23.311Z,96987.25
2019-05-18T22:39:52.891Z,96989.57
2019-05-18T22:42:22.206Z,96982.48
2019-05-18T22:44:51.488Z,96984.31
2019-05-18T22:47:20.801Z,96983.77
2019-05-18T22:49:50.077Z,96981.63
2019-05-18T22:52:19.363Z,96977.17
2019-05-18T22:54:48.702Z,96968.00
2019-05-18T22:57:17.991Z,96974.29
2019-05-18T22:59:48.412Z,96973.52
2019-05-18T23:02:17.726Z,96974.16
2019-05-18T23:04:47.006Z,96971.03
2019-05-18T23:07:16.329Z,96978.67
2019-05-18T23:09:45.638Z,96973.17
2019-05-18T23:12:14.943Z,96971.70
2019-05-18T23:14:45.334Z,96978.77
2019-05-18T23:17:14.658Z,96970.95
2019-05-18T23:19:43.940Z,96965.47
2019-05-18T23:22:15.031Z,96970.23
2019-05-18T23:24:44.337Z,96960.49
2019-05-18T23:27:13.631Z,96962.84
2019-05-18T23:29:42.945Z,96964.22
2019-05-18T23:32:12.285Z,96960.31
2019-05-18T23:34:41.608Z,96963.45
2019-05-18T23:37:10.900Z,96960.53
2019-05-18T23:39:40.182Z,96955.47
2019-05-18T23:42:09.468Z,96952.74
2019-05-18T23:44:38.833Z,96956.28
2019-05-18T23:47:08.128Z,96950.64
2019-05-18T23:49:37.435Z,96945.55
2019-05-18T23:52:06.730Z,96939.48
2019-05-18T23:54:36.080Z,96945.56
2019-05-18T23:57:06.783Z,96945.76
2019-05-18T23:59:36.174Z,96939.72
